Time;durP1;ratioP1;P1;durP2;ratioP2;P2;SDS_P1;SDS_P2;PMS_P1;PMS_P2;Temp;Humidity;BMP_temperature;BMP_pressure;BME280_temperature;BME280_humidity;BME280_pressure;Samples;Min_cycle;Max_cycle;Signal;HPM_P1;HPM_P2
2022/05/13 00:02:13;;;;;;;2.00;1.80;;;;;;;;;;4142470;34;20099;-62
2022/05/13 00:33:34;;;;;;;1.60;1.50;;;;;;;;;;4469847;28;20584;-58
2022/05/13 00:36:00;;;;;;;1.95;1.80;;;;;;;;;;4162005;34;20130;-59
2022/05/13 00:38:26;;;;;;;3.83;1.75;;;;;;;;;;4163646;34;20458;-59
2022/05/13 00:40:53;;;;;;;1.70;1.60;;;;;;;;;;4162979;34;20206;-59
2022/05/13 00:43:38;;;;;;;2.17;1.70;;;;;;;;;;4163634;34;20117;-59
2022/05/13 00:46:04;;;;;;;1.62;1.52;;;;;;;;;;4163649;34;20126;-59
2022/05/13 00:48:30;;;;;;;2.03;1.70;;;;;;;;;;4163957;34;20098;-59
2022/05/13 00:50:57;;;;;;;1.98;1.80;;;;;;;;;;4163574;34;20117;-63
2022/05/13 00:53:24;;;;;;;1.60;1.50;;;;;;;;;;4163643;34;20122;-62
2022/05/13 00:55:51;;;;;;;1.90;1.80;;;;;;;;;;4163542;34;20110;-62
2022/05/13 00:58:17;;;;;;;3.15;1.70;;;;;;;;;;4150972;34;20114;-62
2022/05/13 01:00:44;;;;;;;3.05;1.70;;;;;;;;;;4163510;34;20183;-62
2022/05/13 01:03:11;;;;;;;2.75;2.00;;;;;;;;;;4151014;34;20145;-62
2022/05/13 01:05:39;;;;;;;2.30;1.98;;;;;;;;;;4151122;34;20122;-62
2022/05/13 01:08:07;;;;;;;1.80;1.70;;;;;;;;;;4150833;34;20130;-59
2022/05/13 01:10:35;;;;;;;2.42;1.83;;;;;;;;;;4150918;34;20175;-59
2022/05/13 01:13:04;;;;;;;1.95;1.77;;;;;;;;;;4163610;34;20111;-59
2022/05/13 01:15:34;;;;;;;2.03;1.85;;;;;;;;;;4150922;34;20107;-60
2022/05/13 01:18:06;;;;;;;4.70;1.90;;;;;;;;;;4150729;34;20099;-59
2022/05/13 01:20:38;;;;;;;2.30;2.10;;;;;;;;;;4163289;34;20133;-59
2022/05/13 01:23:10;;;;;;;1.98;1.77;;;;;;;;;;4163258;34;20179;-59
2022/05/13 01:25:48;;;;;;;3.55;1.90;;;;;;;;;;4163371;34;20118;-59
2022/05/13 01:28:18;;;;;;;4.15;2.53;;;;;;;;;;4150732;34;20130;-59
2022/05/13 01:30:47;;;;;;;2.22;1.70;;;;;;;;;;4163157;34;20134;-59
2022/05/13 01:33:14;;;;;;;2.20;1.90;;;;;;;;;;4139594;34;20500;-59
2022/05/13 01:35:42;;;;;;;2.70;1.80;;;;;;;;;;4163060;34;20110;-59
2022/05/13 01:38:08;;;;;;;2.00;1.77;;;;;;;;;;4163160;34;20130;-59
2022/05/13 01:40:34;;;;;;;2.70;2.10;;;;;;;;;;4163337;34;20119;-60
2022/05/13 01:43:00;;;;;;;4.85;1.75;;;;;;;;;;4163027;34;20130;-59
2022/05/13 01:45:26;;;;;;;2.75;1.90;;;;;;;;;;4163038;34;20090;-59
2022/05/13 01:47:52;;;;;;;2.33;2.00;;;;;;;;;;4150556;34;20199;-59
2022/05/13 01:50:18;;;;;;;2.47;1.90;;;;;;;;;;4163191;34;20193;-59
2022/05/13 01:52:44;;;;;;;4.07;1.87;;;;;;;;;;4163145;34;20099;-58
2022/05/13 01:55:10;;;;;;;2.05;1.85;;;;;;;;;;4150048;34;20119;-59
2022/05/13 01:57:36;;;;;;;5.00;2.28;;;;;;;;;;4162715;34;20090;-59
2022/05/13 02:00:03;;;;;;;2.20;2.00;;;;;;;;;;4162782;34;20115;-59
2022/05/13 02:02:29;;;;;;;2.65;2.00;;;;;;;;;;4162993;34;20095;-59
2022/05/13 02:04:55;;;;;;;2.53;2.15;;;;;;;;;;4162774;34;20102;-59
2022/05/13 02:07:21;;;;;;;3.17;2.40;;;;;;;;;;4162791;34;20122;-59
2022/05/13 02:09:47;;;;;;;3.37;2.00;;;;;;;;;;4163053;34;20099;-59
2022/05/13 02:12:13;;;;;;;2.45;2.00;;;;;;;;;;4164850;34;20117;-59
2022/05/13 02:14:39;;;;;;;3.10;2.25;;;;;;;;;;4164796;34;20138;-58
2022/05/13 02:17:05;;;;;;;4.03;1.90;;;;;;;;;;4164945;34;20458;-59
2022/05/13 02:19:31;;;;;;;2.70;2.30;;;;;;;;;;4164733;34;20134;-58
2022/05/13 02:21:57;;;;;;;2.90;2.10;;;;;;;;;;4164979;34;20557;-59
2022/05/13 02:24:23;;;;;;;1.95;1.75;;;;;;;;;;4164779;34;20113;-59
2022/05/13 02:26:49;;;;;;;2.17;1.80;;;;;;;;;;4164832;34;20126;-59
2022/05/13 02:29:15;;;;;;;3.00;2.15;;;;;;;;;;4164581;34;20107;-59
2022/05/13 02:31:41;;;;;;;3.45;2.10;;;;;;;;;;4164788;34;20115;-58
2022/05/13 02:34:07;;;;;;;3.60;2.10;;;;;;;;;;4151992;34;20520;-58
2022/05/13 02:36:33;;;;;;;2.55;2.10;;;;;;;;;;4164730;34;20102;-59
2022/05/13 02:38:59;;;;;;;2.10;1.90;;;;;;;;;;4164705;34;20114;-59
2022/05/13 02:41:25;;;;;;;5.87;2.00;;;;;;;;;;4164831;34;20145;-61
2022/05/13 02:43:53;;;;;;;2.60;2.00;;;;;;;;;;4164834;34;20545;-59
2022/05/13 02:46:24;;;;;;;4.70;2.10;;;;;;;;;;4141034;34;20118;-60
2022/05/13 02:48:50;;;;;;;3.45;2.00;;;;;;;;;;4164734;34;20110;-60
2022/05/13 02:51:17;;;;;;;2.28;2.08;;;;;;;;;;4152015;34;20094;-60
2022/05/13 02:53:43;;;;;;;2.33;2.12;;;;;;;;;;4151865;34;20118;-59
2022/05/13 02:56:09;;;;;;;5.03;1.92;;;;;;;;;;4164573;34;20558;-59
2022/05/13 02:58:36;;;;;;;4.80;2.10;;;;;;;;;;4164387;34;20644;-59
2022/05/13 03:01:03;;;;;;;2.28;2.08;;;;;;;;;;4164651;34;20115;-59
2022/05/13 03:03:30;;;;;;;2.78;1.92;;;;;;;;;;4164422;34;20537;-59
2022/05/13 03:05:57;;;;;;;3.85;1.85;;;;;;;;;;4164703;34;20110;-59
2022/05/13 03:08:23;;;;;;;3.92;1.90;;;;;;;;;;4164445;34;20114;-59
2022/05/13 03:10:49;;;;;;;6.15;2.37;;;;;;;;;;4164673;34;20125;-59
2022/05/13 03:13:18;;;;;;;3.97;2.40;;;;;;;;;;4164395;34;20119;-60
2022/05/13 03:15:45;;;;;;;3.78;2.03;;;;;;;;;;4140655;34;20746;-58
2022/05/13 03:18:10;;;;;;;2.40;1.73;;;;;;;;;;4164266;34;20126;-59
2022/05/13 03:20:36;;;;;;;4.43;2.25;;;;;;;;;;4164049;34;20506;-58
2022/05/13 03:23:03;;;;;;;5.62;2.37;;;;;;;;;;4163694;34;20098;-58
2022/05/13 03:25:29;;;;;;;3.20;2.25;;;;;;;;;;4164263;34;20107;-60
2022/05/13 03:27:55;;;;;;;2.80;2.15;;;;;;;;;;4164297;34;20106;-60
2022/05/13 03:30:23;;;;;;;1.95;1.80;;;;;;;;;;4164409;34;20095;-60
2022/05/13 03:32:50;;;;;;;2.25;1.80;;;;;;;;;;4164154;34;20761;-60
2022/05/13 03:35:18;;;;;;;2.12;1.70;;;;;;;;;;4164261;34;20114;-59
2022/05/13 03:37:44;;;;;;;2.17;1.90;;;;;;;;;;4140468;34;20742;-59
2022/05/13 03:40:11;;;;;;;7.20;1.85;;;;;;;;;;4164173;34;20567;-60
2022/05/13 03:42:37;;;;;;;4.50;2.20;;;;;;;;;;4151603;34;20106;-60
2022/05/13 03:45:05;;;;;;;2.28;1.70;;;;;;;;;;4164171;34;20091;-60
2022/05/13 03:47:31;;;;;;;2.10;1.90;;;;;;;;;;4164024;34;20153;-60
2022/05/13 03:49:57;;;;;;;2.80;2.25;;;;;;;;;;4164081;34;20617;-60
2022/05/13 03:52:23;;;;;;;2.60;2.40;;;;;;;;;;4163963;34;20475;-60
2022/05/13 03:54:49;;;;;;;3.35;2.60;;;;;;;;;;4163955;34;20111;-60
2022/05/13 03:57:15;;;;;;;3.17;2.28;;;;;;;;;;4164033;34;20107;-59
2022/05/13 03:59:41;;;;;;;2.20;2.00;;;;;;;;;;4163983;34;20119;-59
2022/05/13 04:02:07;;;;;;;3.30;2.10;;;;;;;;;;4164014;34;20102;-59
2022/05/13 04:08:56;;;;;;;2.00;1.80;;;;;;;;;;4164082;34;20103;-59
2022/05/13 04:10:05;;;;;;;3.00;2.08;;;;;;;;;;4163913;34;20438;-59
2022/05/13 04:18:00;;;;;;;2.35;2.15;;;;;;;;;;4163862;34;20133;-60
2022/05/13 04:20:26;;;;;;;5.10;1.98;;;;;;;;;;4163746;34;20194;-60
2022/05/13 04:22:52;;;;;;;2.30;1.98;;;;;;;;;;4163713;34;20195;-59
2022/05/13 04:25:19;;;;;;;3.60;2.22;;;;;;;;;;4151061;34;20090;-60
2022/05/13 04:27:46;;;;;;;2.97;2.10;;;;;;;;;;4163836;34;20141;-60
2022/05/13 04:30:13;;;;;;;2.37;2.10;;;;;;;;;;4163890;34;20110;-60
2022/05/13 04:32:39;;;;;;;6.05;3.47;;;;;;;;;;4163232;34;20107;-59
2022/05/13 04:35:06;;;;;;;4.87;2.17;;;;;;;;;;4163860;34;20123;-59
2022/05/13 04:37:32;;;;;;;2.67;2.37;;;;;;;;;;4150871;34;20194;-60
2022/05/13 04:39:58;;;;;;;2.72;2.42;;;;;;;;;;4151198;34;20124;-60
2022/05/13 04:45:09;;;;;;;4.03;2.60;;;;;;;;;;4163708;34;20547;-60
2022/05/13 04:50:21;;;;;;;3.00;2.70;;;;;;;;;;4151160;34;20106;-60
2022/05/13 04:52:47;;;;;;;4.37;2.50;;;;;;;;;;4151419;34;20121;-65
2022/05/13 04:55:13;;;;;;;3.10;2.30;;;;;;;;;;4163776;34;20134;-60
2022/05/13 04:57:39;;;;;;;3.05;2.42;;;;;;;;;;4151258;34;20128;-59
2022/05/13 05:00:09;;;;;;;3.83;2.95;;;;;;;;;;4163464;34;20130;-59
2022/05/13 05:02:35;;;;;;;5.65;2.53;;;;;;;;;;4163525;34;20219;-60
2022/05/13 05:05:01;;;;;;;3.33;2.42;;;;;;;;;;4163426;34;20130;-60
2022/05/13 05:07:27;;;;;;;3.55;2.92;;;;;;;;;;4163701;34;20154;-59
2022/05/13 05:09:53;;;;;;;5.12;3.05;;;;;;;;;;4163622;34;20487;-60
2022/05/13 05:12:19;;;;;;;2.92;1.95;;;;;;;;;;4163507;34;20107;-60
2022/05/13 05:14:45;;;;;;;5.18;3.10;;;;;;;;;;4150648;34;20447;-59
2022/05/13 05:17:11;;;;;;;4.87;2.80;;;;;;;;;;4163331;34;20101;-60
2022/05/13 05:19:38;;;;;;;3.12;2.40;;;;;;;;;;4163195;34;20165;-60
2022/05/13 05:22:05;;;;;;;3.65;2.85;;;;;;;;;;4163360;34;20099;-60
2022/05/13 05:24:32;;;;;;;4.12;3.00;;;;;;;;;;4163152;34;20165;-60
2022/05/13 05:26:58;;;;;;;3.33;2.70;;;;;;;;;;4163299;34;20444;-60
2022/05/13 05:29:24;;;;;;;4.43;2.90;;;;;;;;;;4163250;34;20114;-61
2022/05/13 05:31:50;;;;;;;4.25;3.65;;;;;;;;;;4163420;34;20211;-60
2022/05/13 05:34:19;;;;;;;4.15;3.28;;;;;;;;;;4163088;34;20141;-59
2022/05/13 05:36:45;;;;;;;3.33;2.83;;;;;;;;;;4163174;34;20110;-60
2022/05/13 05:39:11;;;;;;;4.62;2.80;;;;;;;;;;4163270;34;20106;-61
2022/05/13 05:41:37;;;;;;;6.18;3.05;;;;;;;;;;4163170;34;20098;-63
2022/05/13 05:44:04;;;;;;;4.18;2.80;;;;;;;;;;4162681;34;20436;-62
2022/05/13 05:46:30;;;;;;;3.55;3.00;;;;;;;;;;4162928;34;20117;-63
2022/05/13 05:48:56;;;;;;;3.55;3.05;;;;;;;;;;4163217;34;20514;-63
2022/05/13 05:51:22;;;;;;;5.37;3.28;;;;;;;;;;4150434;34;20102;-60
2022/05/13 05:59:17;;;;;;;4.32;3.30;;;;;;;;;;4149972;34;20102;-61
2022/05/13 06:01:43;;;;;;;6.18;3.60;;;;;;;;;;4162913;34;20238;-61
2022/05/13 06:04:09;;;;;;;5.07;3.47;;;;;;;;;;4162882;34;20210;-62
2022/05/13 06:06:35;;;;;;;4.68;3.05;;;;;;;;;;4162859;34;20107;-61
2022/05/13 06:09:01;;;;;;;4.70;3.60;;;;;;;;;;4162837;34;20087;-62
2022/05/13 06:11:28;;;;;;;6.18;3.40;;;;;;;;;;4162887;34;20134;-61
2022/05/13 06:13:58;;;;;;;3.90;3.10;;;;;;;;;;4162509;34;20107;-62
2022/05/13 06:16:25;;;;;;;5.20;3.60;;;;;;;;;;4162820;34;20123;-62
2022/05/13 06:18:51;;;;;;;5.03;3.78;;;;;;;;;;4162880;34;20190;-62
2022/05/13 06:21:18;;;;;;;7.80;3.50;;;;;;;;;;4163009;34;20119;-62
2022/05/13 06:23:43;;;;;;;4.75;3.67;;;;;;;;;;4162659;34;20205;-61
2022/05/13 06:26:10;;;;;;;8.63;3.62;;;;;;;;;;4162725;34;20124;-62
2022/05/13 06:28:36;;;;;;;4.85;3.40;;;;;;;;;;4162621;34;20103;-62
2022/05/13 06:31:02;;;;;;;6.60;4.18;;;;;;;;;;4162601;34;20199;-61
2022/05/13 06:33:28;;;;;;;5.25;4.07;;;;;;;;;;4149951;34;20103;-62
2022/05/13 06:35:54;;;;;;;6.93;3.60;;;;;;;;;;4162691;34;20110;-61
2022/05/13 06:38:23;;;;;;;7.32;3.83;;;;;;;;;;4162408;34;20136;-62
2022/05/13 06:40:49;;;;;;;4.15;3.62;;;;;;;;;;4162688;34;20498;-62
2022/05/13 06:43:16;;;;;;;6.78;4.00;;;;;;;;;;4162600;34;20448;-61
2022/05/13 06:45:42;;;;;;;5.22;4.18;;;;;;;;;;4149895;34;20610;-62
2022/05/13 06:48:09;;;;;;;5.28;4.22;;;;;;;;;;4162328;34;20095;-59
2022/05/13 06:50:35;;;;;;;6.87;4.60;;;;;;;;;;4162304;34;20117;-61
2022/05/13 06:53:01;;;;;;;6.25;3.83;;;;;;;;;;4149667;34;20228;-61
2022/05/13 06:55:28;;;;;;;6.93;4.30;;;;;;;;;;4163010;34;20455;-60
2022/05/13 06:57:54;;;;;;;5.30;4.75;;;;;;;;;;4152166;34;20098;-61
2022/05/13 07:00:20;;;;;;;6.70;4.43;;;;;;;;;;4164545;34;20126;-64
2022/05/13 07:02:46;;;;;;;7.22;5.37;;;;;;;;;;4164435;34;20223;-63
2022/05/13 07:05:14;;;;;;;5.68;4.78;;;;;;;;;;4164458;34;20120;-62
2022/05/13 07:07:41;;;;;;;9.13;5.12;;;;;;;;;;4140381;34;20118;-61
2022/05/13 07:10:08;;;;;;;6.65;5.12;;;;;;;;;;4164554;34;20515;-63
2022/05/13 07:12:36;;;;;;;7.87;4.93;;;;;;;;;;4129542;34;20287;-64
2022/05/13 07:15:04;;;;;;;6.80;6.07;;;;;;;;;;4164397;34;20110;-62
2022/05/13 07:17:30;;;;;;;5.00;4.47;;;;;;;;;;4164434;34;20211;-62
2022/05/13 07:19:56;;;;;;;4.97;3.50;;;;;;;;;;4129752;34;20207;-65
2022/05/13 07:22:23;;;;;;;1.10;1.10;;;;;;;;;;4151841;34;20105;-63
2022/05/13 07:24:51;;;;;;;5.82;4.47;;;;;;;;;;4164437;34;20615;-62
2022/05/13 07:27:17;;;;;;;4.22;1.80;;;;;;;;;;4164228;34;20211;-63
2022/05/13 07:29:43;;;;;;;9.07;4.97;;;;;;;;;;4164621;34;20107;-63
2022/05/13 07:32:10;;;;;;;4.32;3.42;;;;;;;;;;4164429;34;20102;-63
2022/05/13 07:34:36;;;;;;;3.47;2.95;;;;;;;;;;4151568;34;20213;-62
2022/05/13 07:37:02;;;;;;;5.72;3.72;;;;;;;;;;4164102;34;20106;-62
2022/05/13 07:42:13;;;;;;;1.23;1.20;;;;;;;;;;4164188;34;20516;-64
2022/05/13 07:44:39;;;;;;;3.10;2.72;;;;;;;;;;4164185;34;20103;-63
2022/05/13 07:47:07;;;;;;;6.78;3.85;;;;;;;;;;4151422;34;20106;-63
2022/05/13 07:49:34;;;;;;;3.20;2.12;;;;;;;;;;4151138;34;20213;-63
2022/05/13 07:52:00;;;;;;;3.87;3.05;;;;;;;;;;4164016;34;20199;-62
2022/05/13 07:54:26;;;;;;;9.05;5.62;;;;;;;;;;4164294;34;20107;-61
2022/05/13 07:56:53;;;;;;;5.47;3.33;;;;;;;;;;4164178;34;20127;-61
2022/05/13 07:59:20;;;;;;;2.92;2.22;;;;;;;;;;4163863;34;20404;-61
2022/05/13 08:01:46;;;;;;;3.72;2.78;;;;;;;;;;4163992;34;20125;-61
2022/05/13 08:04:12;;;;;;;6.03;4.82;;;;;;;;;;4163821;34;20466;-61
2022/05/13 08:06:40;;;;;;;11.00;3.30;;;;;;;;;;4163768;34;20104;-61
2022/05/13 08:09:06;;;;;;;3.60;2.72;;;;;;;;;;4163565;34;20207;-63
2022/05/13 08:11:32;;;;;;;6.45;4.47;;;;;;;;;;4163783;34;20115;-62
2022/05/13 08:13:58;;;;;;;5.35;4.25;;;;;;;;;;4164008;34;20487;-61
2022/05/13 08:16:26;;;;;;;5.90;4.40;;;;;;;;;;4163787;34;20083;-62
2022/05/13 08:18:56;;;;;;;5.35;4.75;;;;;;;;;;4163832;34;20114;-62
2022/05/13 08:21:24;;;;;;;6.87;4.95;;;;;;;;;;4163970;34;20118;-64
2022/05/13 08:23:50;;;;;;;6.78;5.07;;;;;;;;;;4163878;34;20115;-63
2022/05/13 08:26:16;;;;;;;7.12;4.07;;;;;;;;;;4163776;34;20523;-63
2022/05/13 08:28:43;;;;;;;4.32;2.80;;;;;;;;;;4163698;34;20122;-62
2022/05/13 08:31:09;;;;;;;4.35;3.15;;;;;;;;;;4163984;34;20121;-65
2022/05/13 08:33:36;;;;;;;4.30;3.05;;;;;;;;;;4163996;34;20126;-63
2022/05/13 08:36:05;;;;;;;4.05;2.75;;;;;;;;;;4163653;34;20138;-61
2022/05/13 08:38:34;;;;;;;8.45;3.70;;;;;;;;;;4163502;34;20149;-62
2022/05/13 08:41:08;;;;;;;6.62;3.47;;;;;;;;;;4163752;34;20113;-65
2022/05/13 08:43:39;;;;;;;6.20;2.97;;;;;;;;;;4163831;34;20115;-63
2022/05/13 08:46:14;;;;;;;5.05;4.12;;;;;;;;;;4163712;34;20114;-65
2022/05/13 08:48:51;;;;;;;3.53;3.17;;;;;;;;;;4163647;34;20103;-63
2022/05/13 08:51:21;;;;;;;4.60;3.72;;;;;;;;;;4163653;34;20529;-65
2022/05/13 08:53:56;;;;;;;8.77;5.28;;;;;;;;;;4151269;34;20099;-65
2022/05/13 08:56:27;;;;;;;3.25;2.62;;;;;;;;;;4163477;34;20185;-65
2022/05/13 08:59:08;;;;;;;9.45;5.32;;;;;;;;;;4163509;34;20126;-63
2022/05/13 09:01:45;;;;;;;7.85;4.97;;;;;;;;;;4163532;34;20118;-63
2022/05/13 09:04:19;;;;;;;7.15;4.15;;;;;;;;;;4163303;34;20138;-63
2022/05/13 09:07:06;;;;;;;7.15;4.62;;;;;;;;;;4150986;34;20519;-63
2022/05/13 09:09:34;;;;;;;5.80;4.28;;;;;;;;;;4163366;34;20122;-62
2022/05/13 09:12:08;;;;;;;6.22;4.25;;;;;;;;;;4163691;34;20570;-63
2022/05/13 09:14:43;;;;;;;9.40;4.62;;;;;;;;;;4150637;34;20114;-63
2022/05/13 09:17:32;;;;;;;5.43;4.22;;;;;;;;;;4151013;34;20448;-64
2022/05/13 09:19:57;;;;;;;6.15;3.90;;;;;;;;;;4163201;34;20623;-62
2022/05/13 09:22:32;;;;;;;5.75;3.97;;;;;;;;;;4163482;34;20099;-61
2022/05/13 09:24:58;;;;;;;4.33;3.93;;;;;;;;;;4163332;34;20480;-62
2022/05/13 09:27:24;;;;;;;6.75;3.67;;;;;;;;;;4150455;34;20163;-61
2022/05/13 09:29:50;;;;;;;6.55;5.03;;;;;;;;;;4163304;34;20103;-62
2022/05/13 09:32:25;;;;;;;8.32;3.85;;;;;;;;;;4150639;34;20161;-62
2022/05/13 09:35:05;;;;;;;5.35;3.28;;;;;;;;;;4163208;34;20107;-63
2022/05/13 09:37:43;;;;;;;4.95;3.50;;;;;;;;;;4139319;34;20138;-63
2022/05/13 09:40:18;;;;;;;3.62;3.28;;;;;;;;;;4163231;34;20224;-64
2022/05/13 09:42:49;;;;;;;3.75;3.12;;;;;;;;;;4163270;34;20206;-64
2022/05/13 09:45:28;;;;;;;4.57;3.00;;;;;;;;;;4163093;34;20115;-63
2022/05/13 09:48:06;;;;;;;2.37;2.10;;;;;;;;;;4163016;34;20130;-62
2022/05/13 09:50:35;;;;;;;4.47;2.58;;;;;;;;;;4163080;34;20107;-62
2022/05/13 09:53:06;;;;;;;5.22;2.50;;;;;;;;;;4150172;34;20146;-62
2022/05/13 09:55:35;;;;;;;3.83;2.58;;;;;;;;;;4163150;34;20113;-65
2022/05/13 09:58:04;;;;;;;2.97;2.28;;;;;;;;;;4162767;34;20466;-64
2022/05/13 10:00:32;;;;;;;3.37;2.35;;;;;;;;;;4163203;34;20099;-64
2022/05/13 10:03:07;;;;;;;4.30;2.50;;;;;;;;;;4150186;34;20126;-64
2022/05/13 10:05:36;;;;;;;5.05;3.00;;;;;;;;;;4162971;34;20106;-63
2022/05/13 10:08:08;;;;;;;6.03;2.80;;;;;;;;;;4162957;34;20130;-62
2022/05/13 10:16:28;;;;;;;4.40;2.87;;;;;;;;;;4162840;34;20126;-63
2022/05/13 10:18:56;;;;;;;3.08;2.10;;;;;;;;;;4163108;34;20525;-62
2022/05/13 10:21:27;;;;;;;2.30;2.00;;;;;;;;;;4150291;34;20456;-61
2022/05/13 10:24:06;;;;;;;3.50;2.58;;;;;;;;;;4161018;34;20122;-63
2022/05/13 10:26:36;;;;;;;5.37;2.45;;;;;;;;;;4145677;34;20118;-64
2022/05/13 10:29:37;;;;;;;2.78;2.47;;;;;;;;;;4148874;34;20106;-63
2022/05/13 10:32:26;;;;;;;2.95;2.10;;;;;;;;;;4140581;34;20222;-62
2022/05/13 10:34:54;;;;;;;2.35;2.15;;;;;;;;;;4130053;34;20143;-63
2022/05/13 10:38:01;;;;;;;2.50;2.30;;;;;;;;;;4151943;34;20144;-62
2022/05/13 10:40:36;;;;;;;2.30;2.10;;;;;;;;;;4164773;34;20107;-61
2022/05/13 10:43:15;;;;;;;3.12;2.20;;;;;;;;;;4151936;34;20441;-63
2022/05/13 10:45:42;;;;;;;2.33;2.12;;;;;;;;;;4164462;34;20083;-63
2022/05/13 10:48:27;;;;;;;3.90;2.42;;;;;;;;;;4152204;34;20111;-63
2022/05/13 10:51:21;;;;;;;2.55;2.05;;;;;;;;;;4152239;34;20183;-62
2022/05/13 10:53:57;;;;;;;3.83;2.40;;;;;;;;;;4164741;34;20235;-61
2022/05/13 10:56:56;;;;;;;5.57;1.70;;;;;;;;;;4164491;34;20579;-63
2022/05/13 10:59:50;;;;;;;2.33;2.12;;;;;;;;;;4164499;34;20515;-63
2022/05/13 11:02:41;;;;;;;3.35;2.10;;;;;;;;;;4164609;34;20116;-62
2022/05/13 11:05:14;;;;;;;3.30;1.95;;;;;;;;;;4164622;34;20284;-62
2022/05/13 11:07:57;;;;;;;4.30;2.00;;;;;;;;;;4140469;34;20103;-64
2022/05/13 11:10:25;;;;;;;3.87;2.00;;;;;;;;;;4164698;34;20126;-64
2022/05/13 11:13:16;;;;;;;5.28;2.00;;;;;;;;;;4164654;34;20203;-64
2022/05/13 11:15:59;;;;;;;2.55;2.12;;;;;;;;;;4152045;34;20119;-64
2022/05/13 11:18:31;;;;;;;2.53;2.33;;;;;;;;;;4164109;34;20166;-63
2022/05/13 11:21:11;;;;;;;2.47;2.12;;;;;;;;;;4152012;34;20125;-63
2022/05/13 11:27:10;;;;;;;2.33;1.98;;;;;;;;;;4156403;34;20103;-63
2022/05/13 11:30:10;;;;;;;2.53;2.12;;;;;;;;;;4164239;34;20443;-64
2022/05/13 11:32:46;;;;;;;2.08;1.73;;;;;;;;;;4156382;34;20114;-63
2022/05/13 11:35:38;;;;;;;2.95;2.40;;;;;;;;;;4164620;34;20126;-62
2022/05/13 11:38:10;;;;;;;4.55;2.03;;;;;;;;;;4164492;34;20110;-63
2022/05/13 11:41:10;;;;;;;2.50;2.00;;;;;;;;;;4151756;34;20114;-61
2022/05/13 11:43:57;;;;;;;2.28;2.08;;;;;;;;;;4130909;34;20127;-63
2022/05/13 11:47:01;;;;;;;2.80;2.20;;;;;;;;;;4152012;34;20137;-62
2022/05/13 11:49:33;;;;;;;2.40;1.95;;;;;;;;;;4152560;34;20185;-62
2022/05/13 11:52:12;;;;;;;2.35;2.08;;;;;;;;;;4151734;34;20504;-64
2022/05/13 11:54:40;;;;;;;2.22;1.98;;;;;;;;;;4164212;34;20117;-59
2022/05/13 11:57:27;;;;;;;3.08;2.22;;;;;;;;;;4162959;34;20179;-62
2022/05/13 11:59:53;;;;;;;3.60;2.53;;;;;;;;;;4151612;34;20131;-63
2022/05/13 12:02:50;;;;;;;3.42;2.10;;;;;;;;;;4163942;34;20209;-63
2022/05/13 12:05:16;;;;;;;2.17;1.98;;;;;;;;;;4151515;34;20522;-63
2022/05/13 12:08:07;;;;;;;1.90;1.80;;;;;;;;;;4164156;34;20118;-65
2022/05/13 12:10:42;;;;;;;1.42;1.33;;;;;;;;;;4163687;34;20110;-65
2022/05/13 12:13:33;;;;;;;2.78;1.73;;;;;;;;;;4164223;34;20114;-64
2022/05/13 12:16:14;;;;;;;3.92;1.70;;;;;;;;;;4140462;34;20091;-63
2022/05/13 12:18:40;;;;;;;3.40;1.95;;;;;;;;;;4163991;34;20124;-63
2022/05/13 12:21:28;;;;;;;3.92;1.98;;;;;;;;;;4163886;34;20119;-64
2022/05/13 12:24:05;;;;;;;1.60;1.50;;;;;;;;;;4151525;34;20429;-63
2022/05/13 12:26:52;;;;;;;4.80;2.28;;;;;;;;;;4164034;34;20166;-63
2022/05/13 12:29:39;;;;;;;2.42;1.95;;;;;;;;;;4163816;34;20200;-64
2022/05/13 12:32:09;;;;;;;4.37;2.12;;;;;;;;;;4163687;34;20113;-64
2022/05/13 12:37:33;;;;;;;2.85;1.70;;;;;;;;;;4141836;34;20928;-63
2022/05/13 12:39:59;;;;;;;2.17;1.80;;;;;;;;;;4163740;34;20121;-63
2022/05/13 12:42:56;;;;;;;2.95;2.47;;;;;;;;;;4163606;34;20099;-63
2022/05/13 12:45:37;;;;;;;2.10;2.00;;;;;;;;;;4145240;34;20555;-63
2022/05/13 12:48:08;;;;;;;1.80;1.70;;;;;;;;;;4163473;34;20192;-63
2022/05/13 12:51:13;;;;;;;3.47;2.37;;;;;;;;;;4163667;34;20113;-63
2022/05/13 12:53:45;;;;;;;2.95;2.22;;;;;;;;;;4163163;34;20122;-64
2022/05/13 12:56:37;;;;;;;2.42;1.80;;;;;;;;;;4163524;34;20607;-65
2022/05/13 12:59:29;;;;;;;3.25;2.50;;;;;;;;;;4156015;34;20183;-64
2022/05/13 13:02:01;;;;;;;2.53;2.25;;;;;;;;;;4150907;34;20214;-67
2022/05/13 13:04:32;;;;;;;3.33;2.00;;;;;;;;;;4163558;34;20121;-67
2022/05/13 13:07:10;;;;;;;2.37;2.17;;;;;;;;;;4150612;34;20163;-67
2022/05/13 13:09:44;;;;;;;3.80;2.53;;;;;;;;;;4151130;34;20118;-68
2022/05/13 13:12:43;;;;;;;2.95;2.30;;;;;;;;;;4150537;34;20115;-66
2022/05/13 13:15:19;;;;;;;8.57;2.30;;;;;;;;;;4125586;34;20108;-66
2022/05/13 13:17:59;;;;;;;2.42;1.83;;;;;;;;;;4150690;34;20138;-66
2022/05/13 13:20:28;;;;;;;1.90;1.80;;;;;;;;;;4150686;34;20126;-66
2022/05/13 13:23:05;;;;;;;2.47;1.83;;;;;;;;;;4163236;34;20107;-66
2022/05/13 13:25:32;;;;;;;2.55;2.20;;;;;;;;;;4150795;34;20131;-66
2022/05/13 13:28:04;;;;;;;3.53;1.92;;;;;;;;;;4163303;34;20223;-66
2022/05/13 13:30:31;;;;;;;2.40;1.90;;;;;;;;;;4163576;34;20166;-66
2022/05/13 13:32:57;;;;;;;2.62;1.80;;;;;;;;;;4150450;34;20123;-66
2022/05/13 13:35:35;;;;;;;2.47;1.80;;;;;;;;;;4163370;34;20110;-66
2022/05/13 13:38:04;;;;;;;3.25;1.70;;;;;;;;;;4163354;34;20122;-67
2022/05/13 13:40:35;;;;;;;2.10;1.73;;;;;;;;;;4163377;34;20119;-67
2022/05/13 13:43:23;;;;;;;3.33;1.70;;;;;;;;;;4139447;34;20126;-66
2022/05/13 13:45:53;;;;;;;2.87;2.58;;;;;;;;;;4163327;34;20603;-66
2022/05/13 13:48:29;;;;;;;2.12;1.70;;;;;;;;;;4163014;34;20107;-66
2022/05/13 13:50:56;;;;;;;5.60;2.00;;;;;;;;;;4150788;34;20123;-67
2022/05/13 13:53:34;;;;;;;1.70;1.58;;;;;;;;;;4162813;34;20137;-66
2022/05/13 13:56:05;;;;;;;2.40;1.70;;;;;;;;;;4150221;34;20102;-66
2022/05/13 13:58:34;;;;;;;2.05;1.80;;;;;;;;;;4150346;34;20214;-64
2022/05/13 14:01:08;;;;;;;2.03;1.70;;;;;;;;;;4163073;34;20198;-66
2022/05/13 14:03:34;;;;;;;2.22;1.55;;;;;;;;;;4150248;34;20190;-67
2022/05/13 14:06:03;;;;;;;2.28;1.80;;;;;;;;;;4162011;34;20129;-67
2022/05/13 14:08:34;;;;;;;2.20;1.70;;;;;;;;;;4162865;34;20133;-66
2022/05/13 14:11:01;;;;;;;1.80;1.70;;;;;;;;;;4150415;34;20641;-67
2022/05/13 14:13:43;;;;;;;3.25;1.87;;;;;;;;;;4150294;34;20204;-66
2022/05/13 14:16:26;;;;;;;2.00;1.80;;;;;;;;;;4150425;34;20115;-67
2022/05/13 14:18:54;;;;;;;2.72;2.05;;;;;;;;;;4162768;34;20479;-62
2022/05/13 14:21:20;;;;;;;6.55;1.87;;;;;;;;;;4149987;34;20108;-65
2022/05/13 14:24:03;;;;;;;5.55;1.90;;;;;;;;;;4162760;34;20154;-65
2022/05/13 14:26:30;;;;;;;3.85;2.05;;;;;;;;;;4162694;34;20201;-65
2022/05/13 14:28:56;;;;;;;3.28;1.85;;;;;;;;;;4162753;34;20106;-67
2022/05/13 14:31:33;;;;;;;4.25;1.83;;;;;;;;;;4162705;34;20141;-66
2022/05/13 14:34:00;;;;;;;2.25;1.87;;;;;;;;;;4149816;34;20119;-67
2022/05/13 14:36:38;;;;;;;4.45;1.62;;;;;;;;;;4162437;34;20117;-65
2022/05/13 14:41:55;;;;;;;2.92;1.90;;;;;;;;;;4151743;34;20107;-66
2022/05/13 14:44:42;;;;;;;6.10;2.10;;;;;;;;;;4149881;34;20113;-66
2022/05/13 14:47:27;;;;;;;3.80;2.22;;;;;;;;;;4162607;34;20475;-66
2022/05/13 14:49:55;;;;;;;5.55;2.53;;;;;;;;;;4162249;34;20509;-65
2022/05/13 14:52:28;;;;;;;4.70;2.70;;;;;;;;;;4162497;34;20141;-66
2022/05/13 14:54:55;;;;;;;2.40;2.15;;;;;;;;;;4162416;34;20725;-66
2022/05/13 14:57:22;;;;;;;4.45;2.00;;;;;;;;;;4162211;34;20118;-65
2022/05/13 14:59:51;;;;;;;2.40;2.20;;;;;;;;;;4162335;34;20118;-66
2022/05/13 15:03:05;;;;;;;2.78;1.95;;;;;;;;;;4162407;34;20107;-66
2022/05/13 15:05:51;;;;;;;3.65;2.67;;;;;;;;;;4143396;34;20114;-65
2022/05/13 15:08:40;;;;;;;3.33;2.60;;;;;;;;;;4149591;34;20125;-66
2022/05/13 15:11:13;;;;;;;3.30;2.10;;;;;;;;;;4149822;34;20126;-65
2022/05/13 15:13:39;;;;;;;3.12;1.70;;;;;;;;;;4162300;34;20130;-66
2022/05/13 15:16:07;;;;;;;2.67;1.85;;;;;;;;;;4162228;34;20102;-66
2022/05/13 15:18:36;;;;;;;3.10;2.10;;;;;;;;;;4164633;34;20119;-66
2022/05/13 15:21:04;;;;;;;3.97;2.60;;;;;;;;;;4164243;34;20134;-66
2022/05/13 15:23:30;;;;;;;3.37;2.37;;;;;;;;;;4164442;34;20104;-66
2022/05/13 15:25:56;;;;;;;5.30;2.50;;;;;;;;;;4164365;34;20146;-66
2022/05/13 15:28:22;;;;;;;3.50;2.15;;;;;;;;;;4151894;34;20545;-66
2022/05/13 15:30:50;;;;;;;2.45;2.12;;;;;;;;;;4151604;34;20138;-66
2022/05/13 15:33:16;;;;;;;2.67;2.00;;;;;;;;;;4151610;34;20137;-65
2022/05/13 15:35:43;;;;;;;3.87;1.80;;;;;;;;;;4151867;34;20119;-65
2022/05/13 15:38:09;;;;;;;5.60;2.10;;;;;;;;;;4164226;34;20447;-66
2022/05/13 15:40:37;;;;;;;4.87;2.12;;;;;;;;;;4164113;34;20114;-62
2022/05/13 15:43:04;;;;;;;2.72;1.90;;;;;;;;;;4163961;34;20119;-63
2022/05/13 15:45:32;;;;;;;5.57;2.33;;;;;;;;;;4164063;34;20646;-63
2022/05/13 15:47:58;;;;;;;2.50;1.95;;;;;;;;;;4164246;34;20547;-62
2022/05/13 15:53:09;;;;;;;5.50;2.42;;;;;;;;;;4164284;34;20503;-67
2022/05/13 15:55:42;;;;;;;10.18;2.15;;;;;;;;;;4164364;34;20106;-65
2022/05/13 15:58:43;;;;;;;3.25;1.92;;;;;;;;;;4164186;34;20091;-66
2022/05/13 16:01:10;;;;;;;5.75;2.33;;;;;;;;;;4155577;34;20541;-65
2022/05/13 16:03:37;;;;;;;2.80;2.20;;;;;;;;;;4151312;34;20140;-63
2022/05/13 16:06:03;;;;;;;4.37;2.00;;;;;;;;;;4164160;34;20121;-64
2022/05/13 16:08:29;;;;;;;4.25;2.15;;;;;;;;;;4151609;34;20503;-64
2022/05/13 16:10:58;;;;;;;4.30;2.00;;;;;;;;;;4164074;34;20115;-65
2022/05/13 16:13:27;;;;;;;2.85;2.40;;;;;;;;;;4163833;34;20118;-63
2022/05/13 16:15:58;;;;;;;3.40;1.90;;;;;;;;;;4163927;34;20197;-62